Bookmark and Share
Track history (hours):
 

Andes

Last reported at 2014-Apr-09 12:33 UTC. Time now 2014-Apr-17 15:31 UTC.
Position N 40°25' W 070°46'.
Warning: this ship's position is 8 days out of date.

Length 182 m; draft 7.9 m.

Type: Ship. MMSI: 209394000.

NotesDate/timePositionNaut miles runAvg speedWind from/ knotsBaromVisibWave heightAir tempDewpointWater temp
2014-Apr-09 12:33N 40°25' W 070°46'1111.2
2014-Apr-09 11:33N 40°25' W 071°01'1111.2
2014-Apr-09 10:33N 40°24' W 071°16'1111.4
2014-Apr-09 09:33N 40°24' W 071°31'1111.3
2014-Apr-09 08:33N 40°24' W 071°46'1111.3
2014-Apr-09 07:34N 40°24' W 072°00'1111.3
2014-Apr-09 06:34N 40°24' W 072°15'1111.1
2014-Apr-09 05:34N 40°23' W 072°30'1110.8
2014-Apr-09 04:33N 40°22' W 072°44'1210.6
2014-Apr-09 03:24N 40°22' W 073°00'3210.2
2014-Apr-09 00:15N 40°26' W 073°42'7 9.4
2014-Apr-08 23:33N 40°28' W 073°50'1110.8
2014-Apr-08 22:33N 40°34' W 074°02'4 4.1
2014-Apr-08 21:32N 40°38' W 074°04'0 0.1
2014-Apr-08 20:33N 40°38' W 074°04'0 0.0
2014-Apr-08 19:33N 40°38' W 074°04'0 0.0
2014-Apr-08 18:34N 40°38' W 074°04'0 0.1
2014-Apr-08 17:33N 40°38' W 074°04'3 3.5
2014-Apr-08 16:33N 40°35' W 074°02'7 7.1
2014-Apr-08 15:33N 40°30' W 074°09'5 5.3
2014-Apr-08 14:33N 40°32' W 074°15'0 0.0
2014-Apr-07 14:27N 40°32' W 074°15'4 0.1
2014-Apr-06 05:13N 40°30' W 074°11'6 9.1
2014-Apr-06 04:33N 40°29' W 074°04'10 9.3
2014-Apr-06 03:27N 40°26' W 073°51'48 9.5
2014-Apr-05 22:26N 40°14' W 072°50'1112.6
2014-Apr-05 21:33N 40°14' W 072°36'1212.4
2014-Apr-05 20:33N 40°14' W 072°19'1212.2
2014-Apr-05 19:33N 40°15' W 072°03'1212.4
2014-Apr-05 18:33N 40°15' W 071°47'1312.6
2014-Apr-05 17:34N 40°16' W 071°31'1111.0
2014-Apr-05 16:33N 40°16' W 071°16'1413.5
2014-Apr-05 15:33N 40°16' W 070°59'1413.5
2014-Apr-05 14:33N 40°17' W 070°41'1413.6
2014-Apr-05 13:33N 40°17' W 070°23'1313.4
2014-Apr-05 12:33N 40°18' W 070°05'1513.4
2014-Apr-05 11:26N 40°18' W 069°46'1213.5
2014-Apr-05 10:32N 40°18' W 069°30'  

Dump ship's entire track history

sailing weather and tide predictions

Andes — 5BFM3 — position and weather